createdAt,value
2022-12-25T10:00:15.463Z,0.90
2022-12-25T10:03:04.414Z,0.47
2022-12-25T10:05:52.943Z,0.93
2022-12-25T10:08:31.285Z,1.60
2022-12-25T10:11:05.774Z,0.43
2022-12-25T10:13:55.391Z,0.57
2022-12-25T10:16:31.881Z,0.43
2022-12-25T10:19:27.953Z,0.55
2022-12-25T10:32:58.898Z,0.40
2022-12-25T10:38:37.470Z,0.43
2022-12-25T10:41:32.195Z,0.43
2022-12-25T10:43:59.033Z,0.43
2022-12-25T10:46:28.526Z,0.63
2022-12-25T10:48:57.530Z,0.30
2022-12-25T10:51:32.676Z,0.20
2022-12-25T10:54:02.012Z,0.20
2022-12-25T10:56:28.708Z,0.30
2022-12-25T10:59:05.043Z,0.20
2022-12-25T11:01:32.070Z,0.55
2022-12-25T11:03:59.221Z,0.73
2022-12-25T11:06:27.946Z,0.52
2022-12-25T11:08:56.815Z,0.22
2022-12-25T11:11:26.061Z,0.30
2022-12-25T11:13:55.087Z,0.77
2022-12-25T11:18:57.772Z,0.38
2022-12-25T11:21:26.916Z,0.30
2022-12-25T11:23:58.817Z,0.20
2022-12-25T11:26:28.261Z,0.40
2022-12-25T11:32:07.004Z,0.32
2022-12-25T11:34:46.116Z,0.25
2022-12-25T11:37:22.344Z,0.20
2022-12-25T11:39:49.643Z,0.20
2022-12-25T11:42:24.519Z,0.30
2022-12-25T11:44:58.139Z,0.50
2022-12-25T11:47:31.924Z,0.40
2022-12-25T11:50:10.381Z,0.30
2022-12-25T11:52:41.035Z,0.52
2022-12-25T11:55:18.079Z,0.35
2022-12-25T12:03:31.908Z,0.28
2022-12-25T12:08:50.007Z,0.40
2022-12-25T12:11:22.682Z,0.30
2022-12-25T12:14:01.455Z,0.28
2022-12-25T12:24:41.787Z,0.30
2022-12-25T12:27:24.867Z,0.47
2022-12-25T12:30:00.920Z,0.30
2022-12-25T12:32:52.336Z,0.30
2022-12-25T12:35:22.251Z,0.32
2022-12-25T12:40:37.658Z,0.43
2022-12-25T12:49:11.812Z,0.55
2022-12-25T12:51:46.803Z,0.30
2022-12-25T12:54:23.777Z,0.40
2022-12-25T12:57:01.799Z,0.25
2022-12-25T12:59:39.973Z,0.40
2022-12-25T13:02:28.232Z,0.57
2022-12-25T13:05:07.040Z,0.40
2022-12-25T13:07:53.177Z,0.40
2022-12-25T13:10:25.572Z,0.38
2022-12-25T13:12:56.860Z,0.63
2022-12-25T13:15:28.041Z,0.65
2022-12-25T13:17:56.904Z,0.55
2022-12-25T13:20:38.806Z,0.63
2022-12-25T13:23:14.361Z,0.88
2022-12-25T13:28:14.460Z,0.90
2022-12-25T13:30:42.420Z,0.55
2022-12-25T13:33:18.877Z,0.70
2022-12-25T13:35:47.768Z,0.70
2022-12-25T13:38:17.027Z,0.80
2022-12-25T13:41:11.370Z,0.47
2022-12-25T13:43:42.474Z,0.65
2022-12-25T13:46:13.141Z,0.60
2022-12-25T13:48:40.244Z,0.70
2022-12-25T13:51:23.619Z,0.50
2022-12-25T13:53:52.075Z,0.50
2022-12-25T13:56:19.132Z,0.60
2022-12-25T13:58:47.907Z,0.70
2022-12-25T14:01:16.739Z,0.40
2022-12-25T14:03:46.346Z,0.63
2022-12-25T14:06:24.936Z,0.60
2022-12-25T14:08:56.208Z,0.75
2022-12-25T14:11:25.391Z,0.65
2022-12-25T14:16:22.857Z,0.35
2022-12-25T14:18:56.235Z,0.50
2022-12-25T14:21:29.238Z,0.40
2022-12-25T14:23:56.633Z,0.43
2022-12-25T14:26:26.151Z,0.47
2022-12-25T14:28:55.494Z,0.50
2022-12-25T14:31:25.101Z,0.60
2022-12-25T14:33:54.848Z,0.40
2022-12-25T14:36:22.018Z,0.35
2022-12-25T14:38:58.004Z,0.30
2022-12-25T14:41:34.251Z,0.30
2022-12-25T14:44:03.862Z,0.32
2022-12-25T14:46:32.613Z,0.52
2022-12-25T14:49:00.486Z,0.30
2022-12-25T14:51:29.820Z,0.30
2022-12-25T14:54:03.053Z,0.40
2022-12-25T14:56:39.756Z,0.30
2022-12-25T14:59:10.052Z,0.50
2022-12-25T15:01:40.070Z,1.27
2022-12-25T15:04:14.766Z,0.40
2022-12-25T15:06:52.459Z,0.35
2022-12-25T15:09:21.096Z,0.90
2022-12-25T15:11:49.163Z,0.82
2022-12-25T15:14:15.939Z,0.38
2022-12-25T15:16:45.775Z,0.50
2022-12-25T15:19:21.894Z,0.30
2022-12-25T15:21:52.234Z,0.38
2022-12-25T15:24:20.553Z,0.30
2022-12-25T15:26:47.367Z,0.30
2022-12-25T15:29:14.180Z,0.50
2022-12-25T15:31:42.205Z,0.30
2022-12-25T15:34:17.381Z,0.30
2022-12-25T15:36:44.210Z,0.20
2022-12-25T15:39:11.053Z,0.47
2022-12-25T15:41:58.994Z,0.32
2022-12-25T15:44:26.845Z,0.50
2022-12-25T15:46:54.754Z,0.35
2022-12-25T15:49:21.596Z,0.30
2022-12-25T15:51:48.331Z,0.50
2022-12-25T15:54:15.224Z,0.40
2022-12-25T16:00:33.633Z,0.70
2022-12-25T16:03:00.633Z,0.60
2022-12-25T16:05:27.866Z,0.50
2022-12-25T16:07:54.630Z,0.47
2022-12-25T16:10:23.023Z,0.65
2022-12-25T16:12:51.298Z,0.40
2022-12-25T16:15:19.806Z,0.38
2022-12-25T16:17:46.557Z,0.40
2022-12-25T16:20:14.180Z,0.40
2022-12-25T16:22:43.337Z,0.50
2022-12-25T16:25:17.179Z,1.52
2022-12-25T16:27:44.758Z,0.90
2022-12-25T16:30:16.990Z,0.88
2022-12-25T16:32:44.508Z,1.75
2022-12-25T16:35:12.288Z,1.23
2022-12-25T16:37:39.160Z,0.73
2022-12-25T16:40:07.253Z,1.10
2022-12-25T16:42:34.315Z,0.60
2022-12-25T16:45:01.226Z,0.57
2022-12-25T16:47:31.236Z,0.70
2022-12-25T16:49:58.345Z,0.55
2022-12-25T16:52:25.103Z,0.80
2022-12-25T16:54:51.884Z,0.95
2022-12-25T16:57:18.625Z,0.75
2022-12-25T16:59:45.654Z,1.98
2022-12-25T17:02:16.395Z,2.38
2022-12-25T17:04:47.630Z,1.27
2022-12-25T17:07:16.471Z,4.30
2022-12-25T17:09:44.803Z,5.50
2022-12-25T17:12:11.868Z,5.93
2022-12-25T17:14:38.774Z,4.82
2022-12-25T17:17:05.747Z,5.82
2022-12-25T17:19:33.726Z,6.30
2022-12-25T17:22:03.701Z,8.93
2022-12-25T17:24:30.835Z,3.10
2022-12-25T17:26:57.581Z,7.85
2022-12-25T17:29:25.273Z,7.10
2022-12-25T17:31:52.344Z,6.88
2022-12-25T17:34:19.662Z,4.35
2022-12-25T17:36:46.383Z,5.35
2022-12-25T17:39:14.522Z,9.43
2022-12-25T17:41:41.617Z,7.70
2022-12-25T17:44:09.055Z,5.55
2022-12-25T17:46:35.864Z,4.88
2022-12-25T17:49:03.725Z,5.82
2022-12-25T17:51:31.818Z,6.78
2022-12-25T17:54:03.039Z,5.78
2022-12-25T17:56:32.435Z,4.10
2022-12-25T17:59:03.613Z,3.53
2022-12-25T18:01:30.466Z,2.55
2022-12-25T18:03:59.804Z,2.63
2022-12-25T18:06:29.019Z,2.58
2022-12-25T18:08:57.213Z,2.28
2022-12-25T18:11:29.833Z,2.00
2022-12-25T18:14:01.615Z,1.35
2022-12-25T18:16:30.956Z,1.48
2022-12-25T18:18:59.864Z,0.50
2022-12-25T18:21:27.313Z,1.80
2022-12-25T18:23:54.474Z,4.85
2022-12-25T18:26:21.972Z,6.22
2022-12-25T18:28:49.701Z,3.08
2022-12-25T18:31:20.413Z,3.50
2022-12-25T18:33:48.171Z,2.03
2022-12-25T18:36:17.559Z,3.60
2022-12-25T18:38:44.270Z,2.53
2022-12-25T18:41:11.626Z,2.72
2022-12-25T18:43:53.122Z,2.33
2022-12-25T18:46:25.275Z,1.02
2022-12-25T18:48:52.871Z,2.08
2022-12-25T18:51:19.662Z,2.25
2022-12-25T18:53:46.518Z,2.97
2022-12-25T18:56:15.788Z,4.40
2022-12-25T18:58:43.392Z,5.53
2022-12-25T19:01:12.708Z,4.07
2022-12-25T19:03:41.499Z,5.15
2022-12-25T19:06:08.822Z,7.40
2022-12-25T19:08:35.960Z,7.40
2022-12-25T19:11:06.902Z,5.88
2022-12-25T19:13:33.857Z,6.97
2022-12-25T19:16:00.996Z,5.50
2022-12-25T19:18:28.191Z,5.75
2022-12-25T19:20:56.404Z,5.10
2022-12-25T19:23:23.152Z,6.43
2022-12-25T19:25:49.787Z,5.28
2022-12-25T19:28:17.910Z,9.63
2022-12-25T19:30:44.798Z,7.82
2022-12-25T19:33:17.425Z,5.45
2022-12-25T19:35:44.827Z,6.63
2022-12-25T19:38:13.274Z,4.03
2022-12-25T19:40:40.899Z,6.00
2022-12-25T19:43:08.038Z,6.50
2022-12-25T19:45:34.918Z,5.30
2022-12-25T19:48:01.645Z,6.28
2022-12-25T19:50:32.189Z,4.63
2022-12-25T19:52:59.209Z,4.75
2022-12-25T19:55:27.568Z,6.07
2022-12-25T19:57:55.525Z,5.65
2022-12-25T20:00:22.346Z,4.65
2022-12-25T20:02:49.234Z,5.38
2022-12-25T20:05:16.910Z,6.55
2022-12-25T20:07:44.017Z,6.55
2022-12-25T20:10:11.050Z,6.30
2022-12-25T20:12:39.351Z,6.30
2022-12-25T20:15:07.351Z,6.78
2022-12-25T20:17:34.563Z,7.82
2022-12-25T20:20:01.312Z,8.30
2022-12-25T20:22:30.234Z,7.28
2022-12-25T20:24:56.985Z,6.75
2022-12-25T20:27:23.793Z,9.30
2022-12-25T20:29:53.587Z,7.72
2022-12-25T20:32:20.409Z,7.15
2022-12-25T20:34:47.211Z,5.53
2022-12-25T20:37:14.098Z,5.63
2022-12-25T20:39:40.997Z,6.18
2022-12-25T20:42:08.053Z,5.15
2022-12-25T20:44:35.052Z,4.65
2022-12-25T20:47:04.025Z,4.80
2022-12-25T20:49:33.368Z,4.13
2022-12-25T20:52:05.305Z,4.00
2022-12-25T20:54:32.980Z,3.55
2022-12-25T20:56:59.741Z,3.78
2022-12-25T20:59:27.894Z,3.50
2022-12-25T21:01:58.933Z,3.05
2022-12-25T21:04:29.672Z,1.88
2022-12-25T21:06:57.476Z,3.00
2022-12-25T21:09:26.195Z,2.35
2022-12-25T21:11:52.811Z,1.60
2022-12-25T21:14:20.182Z,1.48
2022-12-25T21:16:47.812Z,1.60
2022-12-25T21:19:16.365Z,2.38
2022-12-25T21:21:45.088Z,1.30
2022-12-25T21:24:12.263Z,1.30
2022-12-25T21:26:41.821Z,2.72
2022-12-25T21:29:12.906Z,2.70
2022-12-25T21:32:18.903Z,1.70
2022-12-25T21:34:45.969Z,2.22
2022-12-25T21:37:14.306Z,1.60
2022-12-25T21:39:41.290Z,1.30
2022-12-25T21:42:07.991Z,1.27
2022-12-25T21:44:36.196Z,1.13
2022-12-25T21:47:04.754Z,2.22
2022-12-25T21:49:50.515Z,1.05
2022-12-25T21:52:18.891Z,0.95
2022-12-25T21:54:46.545Z,1.05
2022-12-25T21:57:13.268Z,0.85
2022-12-25T21:59:40.730Z,1.00
2022-12-25T22:02:11.891Z,0.80
2022-12-25T22:04:39.087Z,1.17
2022-12-25T22:07:18.075Z,0.93
2022-12-25T22:09:51.494Z,1.63
2022-12-25T22:12:39.598Z,0.95
2022-12-25T22:15:09.631Z,2.00
2022-12-25T22:17:56.604Z,2.10
2022-12-25T22:20:28.265Z,2.80
2022-12-25T22:22:56.194Z,3.03
2022-12-25T22:25:24.786Z,2.80
2022-12-25T22:27:51.818Z,1.75
2022-12-25T22:30:20.962Z,1.20
2022-12-25T22:32:48.635Z,1.02
2022-12-25T22:35:16.663Z,2.05
2022-12-25T22:37:43.967Z,1.85
2022-12-25T22:40:13.138Z,1.55
2022-12-25T22:42:42.229Z,1.10
2022-12-25T22:45:10.427Z,1.05
2022-12-25T22:47:37.259Z,1.05
2022-12-25T22:50:05.234Z,1.73
2022-12-25T22:52:32.149Z,1.17
2022-12-25T22:54:58.874Z,1.38
2022-12-25T22:57:26.259Z,1.55
2022-12-25T22:59:57.554Z,1.30
2022-12-25T23:02:24.778Z,1.13
2022-12-25T23:04:51.738Z,1.42
2022-12-25T23:07:18.975Z,1.75
2022-12-25T23:09:45.810Z,1.30
2022-12-25T23:12:32.909Z,1.38
2022-12-25T23:15:01.621Z,1.08
2022-12-25T23:17:47.127Z,1.40
2022-12-25T23:20:33.654Z,0.73
2022-12-25T23:23:19.366Z,0.63
2022-12-25T23:26:05.045Z,1.08
2022-12-25T23:28:50.575Z,0.82
2022-12-25T23:31:23.114Z,0.75
2022-12-25T23:33:51.459Z,0.73
2022-12-25T23:36:18.278Z,0.70
2022-12-25T23:38:45.901Z,0.60
2022-12-25T23:41:12.663Z,0.60
2022-12-25T23:43:39.310Z,0.45
2022-12-25T23:46:06.111Z,0.70
2022-12-25T23:48:34.401Z,0.60
2022-12-25T23:51:03.251Z,0.40
2022-12-25T23:53:30.075Z,0.50
2022-12-25T23:55:57.655Z,0.50
2022-12-25T23:58:24.856Z,0.50
